createdAt,value
2022-08-18T00:32:35.348Z,24.80
2022-08-18T00:33:35.357Z,24.80
2022-08-18T00:34:35.370Z,24.78
2022-08-18T00:35:35.388Z,24.77
2022-08-18T00:36:35.393Z,24.78
2022-08-18T00:37:35.403Z,24.76
2022-08-18T00:38:35.446Z,24.76
2022-08-18T00:39:38.439Z,24.76
2022-08-18T00:40:37.959Z,24.77
2022-08-18T00:41:35.461Z,24.76
2022-08-18T00:42:35.471Z,24.73
2022-08-18T00:43:35.477Z,24.76
2022-08-18T00:44:35.489Z,24.77
2022-08-18T00:45:35.506Z,24.73
2022-08-18T00:46:35.520Z,24.73
2022-08-18T00:48:48.460Z,24.76
2022-08-18T00:49:43.144Z,24.80
2022-08-18T00:50:43.159Z,24.74
2022-08-18T00:51:43.163Z,24.73
2022-08-18T00:52:43.177Z,24.76
2022-08-18T00:53:43.189Z,24.76
2022-08-18T00:54:43.208Z,24.70
2022-08-18T00:55:43.797Z,24.77
2022-08-18T00:56:43.228Z,24.74
2022-08-18T00:57:43.240Z,24.70
2022-08-18T00:58:43.253Z,24.74
2022-08-18T00:59:43.266Z,24.74
2022-08-18T01:00:43.368Z,24.66
2022-08-18T01:01:43.299Z,24.74
2022-08-18T01:02:43.312Z,24.68
2022-08-18T01:03:43.316Z,24.66
2022-08-18T01:04:43.331Z,24.73
2022-08-18T01:05:43.352Z,24.63
2022-08-18T01:06:43.364Z,24.66
2022-08-18T01:07:43.370Z,24.60
2022-08-18T01:08:43.389Z,24.61
2022-08-18T01:09:43.397Z,24.57
2022-08-18T01:10:43.408Z,24.54
2022-08-18T01:11:43.429Z,24.42
2022-08-18T01:12:45.468Z,24.36
2022-08-18T01:13:43.449Z,24.29
2022-08-18T01:14:43.461Z,24.32
2022-08-18T01:15:43.473Z,24.30
2022-08-18T01:16:56.825Z,24.35
2022-08-18T01:17:43.513Z,24.30
2022-08-18T01:18:43.512Z,24.29
2022-08-18T01:19:43.534Z,24.35
2022-08-18T01:20:43.538Z,24.26
2022-08-18T01:21:43.560Z,24.29
2022-08-18T01:22:43.575Z,24.29
2022-08-18T01:23:43.586Z,24.26
2022-08-18T01:24:43.599Z,24.29
2022-08-18T01:25:43.603Z,24.29
2022-08-18T01:26:44.935Z,24.26
2022-08-18T01:27:43.637Z,24.26
2022-08-18T01:28:43.643Z,24.21
2022-08-18T01:29:43.756Z,24.29
2022-08-18T01:30:43.668Z,24.29
2022-08-18T01:31:54.340Z,24.28
2022-08-18T01:32:43.702Z,24.26
2022-08-18T01:33:43.717Z,24.29
2022-08-18T01:34:43.720Z,24.24
2022-08-18T01:35:43.732Z,24.29
2022-08-18T01:36:43.746Z,24.17
2022-08-18T01:37:43.758Z,24.20
2022-08-18T01:38:43.774Z,24.26
2022-08-18T01:41:21.329Z,24.08
2022-08-18T01:41:24.575Z,24.05
2022-08-18T01:41:43.859Z,24.01
2022-08-18T01:42:43.829Z,24.05
2022-08-18T01:43:43.837Z,23.96
2022-08-18T01:44:43.855Z,24.01
2022-08-18T01:45:43.871Z,23.99
2022-08-18T01:46:43.873Z,23.92
2022-08-18T01:47:48.015Z,23.92
2022-08-18T01:48:43.900Z,23.95
2022-08-18T01:49:43.932Z,23.86
2022-08-18T01:50:43.924Z,23.84
2022-08-18T01:51:43.946Z,23.74
2022-08-18T01:52:43.957Z,23.66
2022-08-18T01:53:43.974Z,23.63
2022-08-18T01:54:43.975Z,23.58
2022-08-18T01:55:43.990Z,23.56
2022-08-18T01:56:44.010Z,23.63
2022-08-18T01:57:44.015Z,23.55
2022-08-18T01:58:44.028Z,23.46
2022-08-18T01:59:44.046Z,23.55
2022-08-18T02:00:44.126Z,23.51
2022-08-18T02:01:48.221Z,23.46
2022-08-18T02:02:44.081Z,23.41
2022-08-18T02:03:44.090Z,23.51
2022-08-18T02:04:44.103Z,23.48
2022-08-18T02:05:44.123Z,23.44
2022-08-18T02:06:47.765Z,23.46
2022-08-18T02:07:49.177Z,23.55
2022-08-18T02:08:46.457Z,23.54
2022-08-18T02:09:44.173Z,23.54
2022-08-18T02:10:44.178Z,23.46
2022-08-18T02:11:44.198Z,23.44
2022-08-18T02:12:44.215Z,23.36
2022-08-18T02:13:44.216Z,23.28
2022-08-18T02:14:44.229Z,23.25
2022-08-18T02:15:44.242Z,23.27
2022-08-18T02:16:44.261Z,23.20
2022-08-18T02:17:44.268Z,23.18
2022-08-18T02:18:47.711Z,23.28
2022-08-18T02:19:44.299Z,23.25
2022-08-18T02:20:44.857Z,23.25
2022-08-18T02:21:44.325Z,23.21
2022-08-18T02:22:44.328Z,23.28
2022-08-18T02:23:46.929Z,23.20
2022-08-18T02:24:44.364Z,23.27
2022-08-18T02:25:44.375Z,23.25
2022-08-18T02:26:44.380Z,23.25
2022-08-18T02:27:44.443Z,23.32
2022-08-18T02:28:44.415Z,23.27
2022-08-18T02:29:44.433Z,23.34
2022-08-18T02:30:44.431Z,23.36
2022-08-18T02:31:44.444Z,23.36
2022-08-18T02:32:44.453Z,23.40
2022-08-18T02:33:51.848Z,23.44
2022-08-18T02:34:44.478Z,23.43
2022-08-18T02:35:44.492Z,23.40
2022-08-18T02:36:44.509Z,23.40
2022-08-18T02:37:44.518Z,23.40
2022-08-18T02:38:44.529Z,23.41
2022-08-18T02:39:44.628Z,23.43
2022-08-18T02:40:44.554Z,23.40
2022-08-18T02:41:44.576Z,23.32
2022-08-18T02:42:44.577Z,23.39
2022-08-18T02:43:44.600Z,23.39
2022-08-18T02:44:44.610Z,23.43
2022-08-18T02:45:44.621Z,23.36
2022-08-18T02:46:44.629Z,23.39
2022-08-18T02:47:44.649Z,23.47
2022-08-18T02:48:44.662Z,23.51
2022-08-18T02:49:44.665Z,23.44
2022-08-18T02:50:44.679Z,23.39
2022-08-18T02:51:44.689Z,23.43
2022-08-18T02:52:44.711Z,23.51
2022-08-18T02:53:44.722Z,23.51
2022-08-18T02:54:44.727Z,23.51
2022-08-18T02:55:44.739Z,23.46
2022-08-18T02:59:10.638Z,23.47
2022-08-18T03:00:10.629Z,23.54
2022-08-18T03:01:10.708Z,23.51
2022-08-18T03:02:10.659Z,23.54
2022-08-18T03:03:10.666Z,23.40
2022-08-18T03:05:23.295Z,23.46
2022-08-18T03:06:23.304Z,23.43
2022-08-18T03:07:23.310Z,23.40
2022-08-18T03:08:23.327Z,23.37
2022-08-18T03:11:01.003Z,23.32
2022-08-18T03:12:01.011Z,23.32
2022-08-18T03:13:01.018Z,23.25
2022-08-18T03:14:01.032Z,23.28
2022-08-18T03:15:01.041Z,23.27
2022-08-18T03:16:01.061Z,23.24
2022-08-18T03:25:29.451Z,23.27
2022-08-18T03:26:29.471Z,23.15
2022-08-18T03:27:29.483Z,23.34
2022-08-18T03:28:29.492Z,23.21
2022-08-18T03:29:32.649Z,23.24
2022-08-18T03:30:29.517Z,23.20
2022-08-18T03:31:29.524Z,23.15
2022-08-18T03:32:29.535Z,23.20
2022-08-18T03:33:29.547Z,23.20
2022-08-18T03:34:29.560Z,23.20
2022-08-18T03:35:29.572Z,23.17
2022-08-18T03:36:29.589Z,23.12
2022-08-18T03:37:29.603Z,23.05
2022-08-18T03:38:29.614Z,23.08
2022-08-18T03:39:29.694Z,22.94
2022-08-18T03:40:29.638Z,22.94
2022-08-18T03:41:57.166Z,22.93
2022-08-18T03:42:29.664Z,22.93
2022-08-18T03:43:51.210Z,22.93
2022-08-18T03:44:29.689Z,22.87
2022-08-18T03:45:29.690Z,22.88
2022-08-18T03:46:29.712Z,22.91
2022-08-18T03:47:29.722Z,22.83
2022-08-18T03:48:29.727Z,22.88
2022-08-18T03:49:29.742Z,22.88
2022-08-18T03:50:29.753Z,22.83
2022-08-18T03:51:29.772Z,22.75
2022-08-18T03:52:29.784Z,22.70
2022-08-18T03:53:29.794Z,22.69
2022-08-18T03:54:29.808Z,22.70
2022-08-18T03:55:29.813Z,22.53
2022-08-18T03:56:29.831Z,22.62
2022-08-18T03:57:29.843Z,22.53
2022-08-18T03:58:29.854Z,22.53
2022-08-18T03:59:29.869Z,22.50
2022-08-18T04:00:29.880Z,22.55
2022-08-18T04:01:29.968Z,22.51
2022-08-18T04:02:29.902Z,22.48
2022-08-18T04:03:29.915Z,22.47
2022-08-18T04:04:29.926Z,22.54
2022-08-18T04:05:29.939Z,22.62
2022-08-18T04:06:30.659Z,22.60
2022-08-18T04:07:29.963Z,22.66
2022-08-18T04:08:29.974Z,22.65
2022-08-18T04:09:29.991Z,22.65
2022-08-18T04:10:29.990Z,22.69
2022-08-18T04:11:30.003Z,22.70
2022-08-18T04:12:30.018Z,22.76
2022-08-18T04:13:30.034Z,22.80
2022-08-18T04:14:30.047Z,22.76
2022-08-18T04:15:30.063Z,22.75
2022-08-18T04:16:30.062Z,22.78
2022-08-18T04:17:30.074Z,22.66
2022-08-18T04:18:30.088Z,22.76
2022-08-18T04:19:30.105Z,22.73
2022-08-18T04:20:30.111Z,22.80
2022-08-18T04:21:30.121Z,22.73
2022-08-18T04:22:30.135Z,22.70
2022-08-18T04:23:30.146Z,22.72
2022-08-18T04:24:31.236Z,22.69
2022-08-18T04:25:32.879Z,22.69
2022-08-18T04:26:30.183Z,22.66
2022-08-18T04:27:30.193Z,22.68
2022-08-18T04:28:30.213Z,22.65
2022-08-18T04:29:30.218Z,22.69
2022-08-18T04:30:30.230Z,22.69
2022-08-18T04:31:30.247Z,22.66
2022-08-18T04:32:30.437Z,22.57
2022-08-18T04:33:30.271Z,22.55
2022-08-18T04:34:30.275Z,22.65
2022-08-18T04:35:30.290Z,22.65
2022-08-18T04:36:30.306Z,22.59
2022-08-18T04:37:30.312Z,22.51
2022-08-18T04:38:30.331Z,22.55
2022-08-18T04:39:30.450Z,22.60
2022-08-18T04:40:30.447Z,22.59
2022-08-18T04:41:30.360Z,22.53
2022-08-18T04:42:30.369Z,22.68
2022-08-18T04:43:30.390Z,22.66
2022-08-18T04:44:30.392Z,22.66
2022-08-18T04:45:30.413Z,22.63
2022-08-18T04:46:30.424Z,22.72
2022-08-18T04:47:30.431Z,22.68
2022-08-18T04:48:30.447Z,22.73
2022-08-18T04:49:30.452Z,22.75
2022-08-18T04:50:30.466Z,22.76
2022-08-18T04:52:36.564Z,22.68
2022-08-18T04:52:39.847Z,22.75
2022-08-18T04:53:30.507Z,22.72
2022-08-18T04:54:30.513Z,22.87
2022-08-18T04:55:30.532Z,22.81
2022-08-18T04:56:30.538Z,22.91
2022-08-18T04:57:33.017Z,22.88
2022-08-18T04:58:30.568Z,22.98
2022-08-18T04:59:30.579Z,22.91
2022-08-18T05:00:30.597Z,23.02
2022-08-18T05:01:30.687Z,23.02
2022-08-18T05:02:30.607Z,23.06
2022-08-18T05:03:30.619Z,23.09
2022-08-18T05:04:30.633Z,23.12
2022-08-18T05:05:30.650Z,23.10
2022-08-18T05:06:30.654Z,23.13
2022-08-18T05:07:30.679Z,23.18
2022-08-18T05:08:30.677Z,23.23
2022-08-18T05:09:30.690Z,23.20
2022-08-18T05:10:30.708Z,23.28
2022-08-18T05:11:30.715Z,23.20
2022-08-18T05:12:30.725Z,23.28
2022-08-18T05:13:30.746Z,23.25
2022-08-18T05:14:30.750Z,23.28
2022-08-18T05:15:46.872Z,23.34
2022-08-18T05:16:30.772Z,23.39
2022-08-18T05:17:31.205Z,23.36
2022-08-18T05:18:30.799Z,23.32
2022-08-18T05:19:30.808Z,23.34
2022-08-18T05:20:30.823Z,23.37
2022-08-18T05:21:30.840Z,23.28
2022-08-18T05:22:31.765Z,23.32
2022-08-18T05:23:30.866Z,23.25
2022-08-18T05:24:37.715Z,23.24
2022-08-18T05:25:30.891Z,23.36
2022-08-18T05:26:30.895Z,23.34
2022-08-18T05:27:30.914Z,23.31
2022-08-18T05:28:30.918Z,23.25
2022-08-18T05:29:30.934Z,23.43
2022-08-18T05:30:30.942Z,23.34
2022-08-18T05:31:30.962Z,23.41
2022-08-18T05:32:47.449Z,23.37
2022-08-18T05:33:30.979Z,23.31
2022-08-18T05:34:30.991Z,23.36
2022-08-18T05:35:31.005Z,23.27
2022-08-18T05:36:31.014Z,23.34
2022-08-18T05:37:31.030Z,23.36
2022-08-18T05:38:31.049Z,23.31
2022-08-18T05:39:31.128Z,23.31
2022-08-18T05:40:31.072Z,23.34
2022-08-18T05:41:31.076Z,23.40
2022-08-18T05:42:31.091Z,23.40
2022-08-18T05:43:31.100Z,23.36
2022-08-18T05:44:31.120Z,23.48
2022-08-18T05:45:31.131Z,23.39
2022-08-18T05:46:31.139Z,23.40
2022-08-18T05:47:31.158Z,23.47
2022-08-18T05:48:31.160Z,23.40
2022-08-18T05:49:31.181Z,23.44
2022-08-18T05:50:31.193Z,23.51
2022-08-18T05:51:31.205Z,23.47
2022-08-18T05:52:31.215Z,23.41
2022-08-18T05:53:31.229Z,23.50
2022-08-18T05:54:31.237Z,23.48
2022-08-18T05:55:31.247Z,23.47
2022-08-18T05:56:31.266Z,23.56
2022-08-18T05:57:31.270Z,23.55
2022-08-18T05:58:33.526Z,23.58
2022-08-18T05:59:31.297Z,23.65
2022-08-18T06:00:31.307Z,23.69
2022-08-18T06:01:31.323Z,23.69
2022-08-18T06:02:31.427Z,23.69
2022-08-18T06:03:44.879Z,23.78
2022-08-18T06:04:31.367Z,23.81
2022-08-18T06:05:31.373Z,23.84
2022-08-18T06:06:31.381Z,23.86
2022-08-18T06:07:33.397Z,23.88
2022-08-18T06:08:31.406Z,23.99
2022-08-18T06:09:31.420Z,23.95
2022-08-18T06:10:31.437Z,23.98
2022-08-18T06:11:31.444Z,24.03
2022-08-18T06:12:31.453Z,24.05
2022-08-18T06:13:31.476Z,24.05
2022-08-18T06:14:31.488Z,23.99
2022-08-18T06:15:31.499Z,24.03
2022-08-18T06:16:31.511Z,24.05
2022-08-18T06:17:31.516Z,24.01
2022-08-18T06:18:31.541Z,24.03
2022-08-18T06:19:31.550Z,24.06
2022-08-18T06:20:31.559Z,24.05
2022-08-18T06:21:34.488Z,24.03
2022-08-18T06:22:31.691Z,24.03
2022-08-18T06:23:31.599Z,23.99
2022-08-18T06:24:31.611Z,24.01
2022-08-18T06:25:31.614Z,24.03
2022-08-18T06:26:31.630Z,24.02
2022-08-18T06:27:31.649Z,24.05
2022-08-18T06:28:31.654Z,24.02
2022-08-18T06:29:31.672Z,24.02
2022-08-18T06:30:31.688Z,24.03
2022-08-18T06:31:31.692Z,23.99
2022-08-18T06:32:31.701Z,24.11
2022-08-18T06:33:31.732Z,24.06
2022-08-18T06:34:31.728Z,24.03
2022-08-18T06:35:31.742Z,24.10
2022-08-18T06:36:31.762Z,24.21
2022-08-18T06:37:31.768Z,24.18
2022-08-18T06:38:31.782Z,24.10
2022-08-18T06:39:31.865Z,24.14
2022-08-18T06:40:31.810Z,24.20
2022-08-18T06:41:41.566Z,24.20
2022-08-18T06:42:31.837Z,24.17
2022-08-18T06:43:31.851Z,24.18
2022-08-18T06:44:31.861Z,24.18
2022-08-18T06:45:33.918Z,24.23
2022-08-18T06:46:31.880Z,24.26
2022-08-18T06:47:31.901Z,24.29
2022-08-18T06:48:31.913Z,24.28
2022-08-18T06:49:31.924Z,24.26
2022-08-18T06:50:31.938Z,24.29
2022-08-18T06:51:31.943Z,24.30
2022-08-18T06:52:31.959Z,24.36
2022-08-18T06:53:31.975Z,24.30
2022-08-18T06:54:31.992Z,24.32
2022-08-18T06:55:31.997Z,24.40
2022-08-18T06:56:32.016Z,24.38
2022-08-18T06:57:32.021Z,24.45
2022-08-18T06:58:32.033Z,24.45
2022-08-18T06:59:32.053Z,24.48
2022-08-18T07:00:32.632Z,24.47
2022-08-18T07:01:32.146Z,24.57
2022-08-18T07:02:32.085Z,24.57
2022-08-18T07:03:32.099Z,24.60
2022-08-18T07:04:32.117Z,24.63
2022-08-18T07:05:32.125Z,24.61
2022-08-18T07:06:32.140Z,24.60
2022-08-18T07:07:39.922Z,24.68
2022-08-18T07:08:32.173Z,24.58
2022-08-18T07:09:32.183Z,24.65
2022-08-18T07:10:32.202Z,24.77
2022-08-18T07:11:32.207Z,24.73
2022-08-18T07:12:32.994Z,24.70
2022-08-18T07:13:32.229Z,24.68
2022-08-18T07:14:32.243Z,24.70
2022-08-18T07:15:32.257Z,24.74
2022-08-18T07:16:54.988Z,24.78
2022-08-18T07:17:42.862Z,24.86
2022-08-18T07:18:32.296Z,24.91
2022-08-18T07:19:32.311Z,24.93
2022-08-18T07:20:32.331Z,24.98
2022-08-18T07:21:32.335Z,25.08
2022-08-18T07:22:39.387Z,25.07
2022-08-18T07:23:32.370Z,25.13
2022-08-18T07:24:32.382Z,25.16
2022-08-18T07:25:32.390Z,25.25
2022-08-18T07:26:32.411Z,25.29
2022-08-18T07:27:32.418Z,25.21
2022-08-18T07:28:32.435Z,25.25
2022-08-18T07:29:32.443Z,25.36
2022-08-18T07:30:32.463Z,25.32
2022-08-18T07:31:32.472Z,25.33
2022-08-18T07:32:32.490Z,25.33
2022-08-18T07:33:32.505Z,25.41
2022-08-18T07:34:32.511Z,25.47
2022-08-18T07:35:32.526Z,25.50
2022-08-18T07:36:32.544Z,25.50
2022-08-18T07:37:32.567Z,25.62
2022-08-18T07:38:42.472Z,25.65
2022-08-18T07:39:32.645Z,25.66
2022-08-18T07:40:32.602Z,25.65
2022-08-18T07:41:32.613Z,25.75
2022-08-18T07:42:53.865Z,25.78
2022-08-18T07:43:32.643Z,25.81
2022-08-18T07:44:32.656Z,25.77
2022-08-18T07:45:32.662Z,25.80
2022-08-18T07:46:32.678Z,25.80
2022-08-18T07:47:32.698Z,25.75
2022-08-18T07:48:40.423Z,25.65
2022-08-18T07:49:32.725Z,25.73
2022-08-18T07:50:58.457Z,25.78
2022-08-18T07:51:37.115Z,25.66
2022-08-18T07:52:36.099Z,25.66
2022-08-18T07:53:32.773Z,25.62
2022-08-18T07:54:49.788Z,25.77
2022-08-18T07:55:32.802Z,25.78
2022-08-18T07:56:32.817Z,25.75
2022-08-18T07:57:32.831Z,25.80
2022-08-18T07:58:32.852Z,25.73
2022-08-18T07:59:32.866Z,25.70
2022-08-18T08:00:57.355Z,25.83
2022-08-18T08:01:33.585Z,25.87
2022-08-18T08:02:34.118Z,25.87
2022-08-18T08:03:32.922Z,25.91
2022-08-18T08:04:32.926Z,25.99
2022-08-18T08:05:32.943Z,26.15
2022-08-18T08:06:32.964Z,26.06
2022-08-18T08:07:33.383Z,26.15
2022-08-18T08:08:32.990Z,26.19
2022-08-18T08:09:33.009Z,26.18
2022-08-18T08:10:33.013Z,26.34
2022-08-18T08:11:33.034Z,26.31
2022-08-18T08:12:36.877Z,26.33
2022-08-18T08:13:54.157Z,26.19
2022-08-18T08:14:33.077Z,26.36
2022-08-18T08:16:15.634Z,26.37
2022-08-18T08:17:15.655Z,26.28
2022-08-18T08:18:15.669Z,26.34
2022-08-18T08:19:15.677Z,26.38
2022-08-18T08:20:15.690Z,26.25
2022-08-18T08:21:15.708Z,26.28
2022-08-18T08:23:23.326Z,26.40
2022-08-18T08:24:23.341Z,26.23
2022-08-18T08:29:37.549Z,26.37
2022-08-18T08:32:00.208Z,26.38
2022-08-18T08:33:00.217Z,26.56
2022-08-18T08:45:00.262Z,28.01
2022-08-18T08:45:52.495Z,28.07
2022-08-18T08:46:52.508Z,28.39
2022-08-18T08:47:52.708Z,28.62
2022-08-18T08:48:52.535Z,29.02
2022-08-18T08:50:50.132Z,29.63
2022-08-18T08:51:50.159Z,29.78
2022-08-18T08:52:50.157Z,29.91
2022-08-18T08:53:50.988Z,30.03
2022-08-18T08:54:50.196Z,30.25
2022-08-18T08:55:50.214Z,30.50
2022-08-18T08:56:50.226Z,30.77
2022-08-18T08:57:53.066Z,31.14
2022-08-18T08:59:32.800Z,31.69
2022-08-18T09:01:40.508Z,31.90
2022-08-18T09:02:48.710Z,31.84
2022-08-18T09:03:40.467Z,31.76
2022-08-18T09:04:54.723Z,31.71
2022-08-18T09:06:23.046Z,31.74
2022-08-18T09:07:23.056Z,32.22
2022-08-18T09:41:33.203Z,31.22
2022-08-18T09:42:33.218Z,31.07
2022-08-18T09:43:33.238Z,31.17
2022-08-18T09:44:33.256Z,31.12
2022-08-18T09:46:20.838Z,31.15
2022-08-18T09:47:20.850Z,31.14
2022-08-18T11:22:03.339Z,30.09
2022-08-18T11:23:45.916Z,29.98
2022-08-18T11:24:46.334Z,29.88
2022-08-18T11:25:46.126Z,29.84
2022-08-18T11:30:08.675Z,29.71
2022-08-18T11:31:08.647Z,29.65
2022-08-18T11:33:11.707Z,29.63
2022-08-18T11:34:08.692Z,29.56
2022-08-18T11:35:08.709Z,29.51
2022-08-18T11:36:08.732Z,29.45
2022-08-18T11:43:51.381Z,29.57
2022-08-18T11:44:51.398Z,29.60
2022-08-18T11:46:34.740Z,29.66
2022-08-18T11:47:33.985Z,29.76
2022-08-18T11:48:39.129Z,29.76
2022-08-18T11:49:34.184Z,29.87
2022-08-18T11:50:34.035Z,30.06
2022-08-18T11:51:34.056Z,30.13
2022-08-18T11:52:36.685Z,30.18
2022-08-18T15:30:02.524Z,28.85
2022-08-18T15:33:32.276Z,28.70
2022-08-18T15:34:28.434Z,28.70
2022-08-18T15:35:28.451Z,28.64
2022-08-18T15:36:29.362Z,28.62
2022-08-18T15:37:28.474Z,28.66
2022-08-18T15:38:28.494Z,28.52
2022-08-18T15:39:28.553Z,28.49
2022-08-18T15:40:35.521Z,28.49
2022-08-18T15:49:44.473Z,28.39
2022-08-18T15:50:44.490Z,28.44
2022-08-18T15:51:45.325Z,28.41
2022-08-18T15:52:44.545Z,28.48
2022-08-18T15:53:45.642Z,28.47
2022-08-18T15:54:44.545Z,28.39
2022-08-18T15:55:44.567Z,28.41
2022-08-18T15:56:44.580Z,28.38
2022-08-18T15:57:44.587Z,28.37
2022-08-18T15:58:44.611Z,28.38
2022-08-18T15:59:44.619Z,28.39
2022-08-18T16:00:45.639Z,28.41
2022-08-18T16:01:47.247Z,28.42
2022-08-18T16:02:48.703Z,28.41
2022-08-18T16:03:44.688Z,28.42
2022-08-18T16:04:47.325Z,28.39
2022-08-18T16:05:44.721Z,28.37
2022-08-18T16:06:44.736Z,28.44
2022-08-18T16:07:45.134Z,28.33
2022-08-18T16:08:44.759Z,28.33
2022-08-18T16:09:44.791Z,28.38
2022-08-18T16:10:44.799Z,28.39
2022-08-18T16:11:44.813Z,28.27
2022-08-18T16:12:45.918Z,28.32
2022-08-18T16:13:44.840Z,28.23
2022-08-18T16:14:44.853Z,28.25
2022-08-18T16:15:44.866Z,28.27
2022-08-18T16:16:44.889Z,28.25
2022-08-18T16:17:44.899Z,28.26
2022-08-18T16:18:44.923Z,28.19
2022-08-18T16:19:44.934Z,28.23
2022-08-18T16:20:44.954Z,28.11
2022-08-18T16:21:44.963Z,28.07
2022-08-18T16:22:44.978Z,28.10
2022-08-18T16:23:44.999Z,28.10
2022-08-18T16:24:45.012Z,28.08
2022-08-18T16:25:45.023Z,28.04
2022-08-18T16:26:45.043Z,28.01
2022-08-18T16:27:45.060Z,27.98
2022-08-18T16:28:45.069Z,27.93
2022-08-18T16:29:45.085Z,28.00
2022-08-18T16:30:45.101Z,27.93
2022-08-18T16:31:45.116Z,27.87
2022-08-18T16:32:45.146Z,27.85
2022-08-18T16:33:45.146Z,27.83
2022-08-18T16:34:45.170Z,27.83
2022-08-18T16:35:45.275Z,27.85
2022-08-18T16:36:45.192Z,27.85
2022-08-18T16:37:45.209Z,27.78
2022-08-18T16:38:47.056Z,27.85
2022-08-18T16:39:45.280Z,27.77
2022-08-18T16:40:45.260Z,27.71
2022-08-18T16:41:45.269Z,27.74
2022-08-18T16:42:45.292Z,27.67
2022-08-18T16:43:45.299Z,27.68
2022-08-18T16:44:45.313Z,27.52
2022-08-18T16:45:45.339Z,27.58
2022-08-18T16:46:45.355Z,27.63
2022-08-18T16:47:45.397Z,27.58
2022-08-18T16:48:45.378Z,27.49
2022-08-18T16:49:45.395Z,27.54
2022-08-18T16:50:45.403Z,27.54
2022-08-18T16:51:45.427Z,27.54
2022-08-18T16:52:45.546Z,27.51
2022-08-18T16:53:45.457Z,27.49
2022-08-18T16:54:45.470Z,27.54
2022-08-18T16:55:45.490Z,27.54
2022-08-18T16:56:45.502Z,27.55
2022-08-18T16:57:53.797Z,27.44
2022-08-18T16:58:45.524Z,27.45
2022-08-18T16:59:45.557Z,27.42
2022-08-18T17:00:45.553Z,27.40
2022-08-18T17:01:48.803Z,27.48
2022-08-18T17:02:45.630Z,27.42
2022-08-18T17:03:45.606Z,27.48
2022-08-18T17:04:45.620Z,27.42
2022-08-18T17:05:45.629Z,27.29
2022-08-18T17:06:47.488Z,27.35
2022-08-18T17:07:45.718Z,27.40
2022-08-18T17:08:45.679Z,27.39
2022-08-18T17:09:45.688Z,27.33
2022-08-18T17:10:45.705Z,27.32
2022-08-18T17:11:51.427Z,27.26
2022-08-18T17:12:45.776Z,27.32
2022-08-18T17:13:45.747Z,27.27
2022-08-18T17:14:47.178Z,27.27
2022-08-18T17:15:45.784Z,27.25
2022-08-18T17:16:45.798Z,27.30
2022-08-18T17:17:45.815Z,27.22
2022-08-18T17:18:45.823Z,27.26
2022-08-18T17:19:45.844Z,27.20
2022-08-18T17:20:45.850Z,27.21
2022-08-18T17:21:45.866Z,27.20
2022-08-18T17:22:45.918Z,27.15
2022-08-18T17:23:45.995Z,27.11
2022-08-18T17:24:48.595Z,27.17
2022-08-18T17:30:00.149Z,26.97
2022-08-18T17:31:00.143Z,27.03
2022-08-18T17:32:00.166Z,26.99
2022-08-18T17:33:01.249Z,27.00
2022-08-18T17:34:00.194Z,26.97
2022-08-18T17:35:00.204Z,26.95
2022-08-18T17:36:00.223Z,26.99
2022-08-18T17:37:00.232Z,26.93
2022-08-18T17:38:00.252Z,26.96
2022-08-18T17:39:00.260Z,26.99
2022-08-18T17:40:00.368Z,26.96
2022-08-18T17:42:02.882Z,26.90
2022-08-18T17:43:02.904Z,26.93
2022-08-18T17:44:04.327Z,26.88
2022-08-18T17:45:04.237Z,26.83
2022-08-18T17:46:02.947Z,26.92
2022-08-18T17:47:02.963Z,26.88
2022-08-18T17:48:02.976Z,26.92
2022-08-18T17:49:02.985Z,26.85
2022-08-18T17:50:27.101Z,26.85
2022-08-18T17:51:03.018Z,26.85
2022-08-18T17:52:03.238Z,26.80
2022-08-18T17:53:03.044Z,26.80
2022-08-18T18:07:25.762Z,26.56
2022-08-18T18:08:25.775Z,26.58
2022-08-18T18:13:14.293Z,26.58
2022-08-18T18:14:14.307Z,26.51
2022-08-18T18:15:14.319Z,26.43
2022-08-18T18:16:14.335Z,26.38
2022-08-18T18:17:14.524Z,26.40
2022-08-18T18:18:14.364Z,26.37
2022-08-18T18:19:14.378Z,26.40
2022-08-18T18:20:15.539Z,26.40
2022-08-18T18:21:14.399Z,26.38
2022-08-18T18:22:14.412Z,26.38
2022-08-18T18:23:14.435Z,26.31
2022-08-18T18:24:14.440Z,26.29
2022-08-18T18:25:14.461Z,26.31
2022-08-18T18:26:14.471Z,26.34
2022-08-18T18:27:14.483Z,26.19
2022-08-18T18:28:14.499Z,26.26
2022-08-18T18:29:14.514Z,26.19
2022-08-18T18:30:14.525Z,26.18
2022-08-18T18:31:14.540Z,26.25
2022-08-18T18:32:14.552Z,26.25
2022-08-18T18:33:14.567Z,26.18
2022-08-18T18:34:23.598Z,26.21
2022-08-18T18:35:14.604Z,26.22
2022-08-18T18:36:14.610Z,26.06
2022-08-18T18:37:14.632Z,26.19
2022-08-18T18:38:14.652Z,26.05
2022-08-18T18:39:14.654Z,26.16
2022-08-18T18:40:14.711Z,26.07
2022-08-18T18:41:14.687Z,26.15
2022-08-18T18:42:14.695Z,26.16
2022-08-18T18:43:14.741Z,26.10
2022-08-18T18:44:14.722Z,26.09
2022-08-18T18:45:14.736Z,26.05
2022-08-18T18:46:18.580Z,26.05
2022-08-18T18:47:14.765Z,26.10
2022-08-18T18:48:48.146Z,26.07
2022-08-18T18:49:14.792Z,26.05
2022-08-18T18:50:14.812Z,26.02
2022-08-18T18:51:14.828Z,25.99
2022-08-18T18:52:14.833Z,26.03
2022-08-18T18:53:14.847Z,26.03
2022-08-18T18:54:14.861Z,25.98
2022-08-18T18:55:14.881Z,25.98
2022-08-18T18:56:14.889Z,25.98
2022-08-18T18:57:14.908Z,25.98
2022-08-18T18:58:14.917Z,25.84
2022-08-18T18:59:14.938Z,25.93
2022-08-18T19:00:18.179Z,25.85
2022-08-18T19:01:15.022Z,25.88
2022-08-18T19:02:33.671Z,25.90
2022-08-18T19:03:14.994Z,25.96
2022-08-18T19:04:14.999Z,25.88
2022-08-18T19:05:15.014Z,25.93
2022-08-18T19:06:15.028Z,25.95
2022-08-18T19:07:21.092Z,25.88
2022-08-18T19:08:15.054Z,25.93
2022-08-18T19:09:15.073Z,25.98
2022-08-18T19:10:15.083Z,26.00
2022-08-18T19:11:15.099Z,25.98
2022-08-18T19:12:15.110Z,25.91
2022-08-18T19:13:29.934Z,25.98
2022-08-18T19:14:15.145Z,25.96
2022-08-18T19:15:15.154Z,25.91
2022-08-18T19:16:23.769Z,26.00
2022-08-18T19:17:15.189Z,25.93
2022-08-18T19:18:15.203Z,25.98
2022-08-18T19:19:37.050Z,25.96
2022-08-18T19:20:15.221Z,25.95
2022-08-18T19:22:03.774Z,25.95
2022-08-18T19:22:18.723Z,25.88
2022-08-18T19:23:19.558Z,25.87
2022-08-18T19:24:15.276Z,25.95
2022-08-18T19:25:15.296Z,25.90
2022-08-18T19:26:15.312Z,25.91
2022-08-18T19:27:15.328Z,25.91
2022-08-18T19:28:15.332Z,25.98
2022-08-18T19:29:15.345Z,25.91
2022-08-18T19:30:15.366Z,26.03
2022-08-18T19:31:15.383Z,25.93
2022-08-18T19:32:16.787Z,26.05
2022-08-18T19:33:15.401Z,26.05
2022-08-18T19:34:15.414Z,26.05
2022-08-18T19:35:15.436Z,25.99
2022-08-18T19:36:19.552Z,25.98
2022-08-18T19:37:22.671Z,25.96
2022-08-18T19:38:15.471Z,25.95
2022-08-18T19:39:15.484Z,25.90
2022-08-18T19:40:15.503Z,25.88
2022-08-18T19:41:20.152Z,25.87
2022-08-18T19:42:15.524Z,25.85
2022-08-18T19:43:15.545Z,25.81
2022-08-18T19:44:15.562Z,25.83
2022-08-18T19:45:17.208Z,25.73
2022-08-18T19:46:15.582Z,25.73
2022-08-18T19:47:15.593Z,25.80
2022-08-18T19:48:18.221Z,25.69
2022-08-18T19:49:15.621Z,25.63
2022-08-18T19:50:15.636Z,25.65
2022-08-18T19:51:15.648Z,25.65
2022-08-18T19:52:46.387Z,25.63
2022-08-18T19:53:15.677Z,25.53
2022-08-18T19:54:15.691Z,25.54
2022-08-18T19:55:15.704Z,25.46
2022-08-18T19:56:15.716Z,25.44
2022-08-18T19:57:15.740Z,25.43
2022-08-18T19:58:15.753Z,25.38
2022-08-18T19:59:19.605Z,25.31
2022-08-18T20:00:15.771Z,25.35
2022-08-18T20:01:20.981Z,25.36
2022-08-18T20:02:15.808Z,25.28
2022-08-18T20:03:15.815Z,25.21
2022-08-18T20:04:15.834Z,25.28
2022-08-18T20:05:15.842Z,25.23
2022-08-18T20:06:33.849Z,25.21
2022-08-18T20:07:15.876Z,25.13
2022-08-18T20:08:15.901Z,25.10
2022-08-18T20:09:15.903Z,25.10
2022-08-18T20:10:15.907Z,25.01
2022-08-18T20:11:15.931Z,24.93
2022-08-18T20:12:15.935Z,24.96
2022-08-18T20:13:15.949Z,24.96
2022-08-18T20:14:17.190Z,24.88
2022-08-18T20:15:15.985Z,24.92
2022-08-18T20:16:15.998Z,24.78
2022-08-18T20:17:16.003Z,24.85
2022-08-18T20:18:16.016Z,24.65
2022-08-18T20:19:16.527Z,24.60
2022-08-18T20:20:16.043Z,24.60
2022-08-18T20:21:16.055Z,24.55
2022-08-18T20:22:20.695Z,24.57
2022-08-18T20:23:16.092Z,24.39
2022-08-18T20:24:16.097Z,24.47
2022-08-18T20:25:16.116Z,24.43
2022-08-18T20:26:16.131Z,24.42
2022-08-18T20:27:16.144Z,24.38
2022-08-18T20:28:16.151Z,24.45
2022-08-18T20:29:16.172Z,24.33
2022-08-18T20:30:16.177Z,24.32
2022-08-18T20:31:16.192Z,24.28